Time;durP1;ratioP1;P1;durP2;ratioP2;P2;SDS_P1;SDS_P2;PMS_P1;PMS_P2;Temp;Humidity;BMP_temperature;BMP_pressure;BME280_temperature;BME280_humidity;BME280_pressure;Samples;Min_cycle;Max_cycle;Signal;HPM_P1;HPM_P2
2023/04/13 00:00:37;;;;;;;0.20;0.20;;;;;;;9.51;96.70;94342.97;4376750;32;20176;-61
2023/04/13 00:03:03;;;;;;;0.00;0.00;;;;;;;9.28;97.63;94349.47;4382899;32;20256;-61
2023/04/13 00:05:30;;;;;;;0.07;0.07;;;;;;;9.16;98.20;94354.56;4384287;32;20207;-61
2023/04/13 00:08:01;;;;;;;0.00;0.00;;;;;;;9.09;98.47;94364.84;4385918;32;20276;-61
2023/04/13 00:10:26;;;;;;;0.10;0.10;;;;;;;8.88;98.97;94365.41;4387709;32;20286;-61
2023/04/13 00:12:52;;;;;;;0.07;0.07;;;;;;;8.90;99.29;94368.53;4381986;32;20289;-61
2023/04/13 00:15:20;;;;;;;0.07;0.07;;;;;;;8.91;99.08;94383.31;4385887;32;20180;-61
2023/04/13 00:17:46;;;;;;;0.00;0.00;;;;;;;9.06;97.83;94383.97;4391099;32;20184;-61
2023/04/13 00:20:15;;;;;;;0.87;0.30;;;;;;;8.80;97.42;94381.22;4376434;32;20334;-61
2023/04/13 00:22:45;;;;;;;0.00;0.00;;;;;;;8.71;97.93;94391.78;4388785;32;20180;-61
2023/04/13 00:25:13;;;;;;;0.10;0.10;;;;;;;8.63;97.55;94397.78;4389693;32;20337;-61
2023/04/13 00:27:44;;;;;;;0.00;0.00;;;;;;;8.58;98.02;94397.91;4372818;32;20329;-60
2023/04/13 00:30:12;;;;;;;0.10;0.10;;;;;;;8.67;97.54;94400.59;4383037;32;20333;-61
2023/04/13 00:32:39;;;;;;;0.00;0.00;;;;;;;8.50;96.79;94399.44;4374266;32;20383;-60
2023/04/13 00:35:06;;;;;;;0.03;0.03;;;;;;;8.31;97.08;94405.97;4388638;32;20318;-60
2023/04/13 00:37:34;;;;;;;0.00;0.00;;;;;;;8.06;97.02;94420.56;4370658;32;20294;-61
2023/04/13 00:40:00;;;;;;;0.17;0.10;;;;;;;8.18;96.58;94424.22;4384081;32;20319;-60
2023/04/13 00:42:25;;;;;;;0.00;0.00;;;;;;;8.00;96.90;94430.44;4386229;32;20295;-61
2023/04/13 00:44:52;;;;;;;0.00;0.00;;;;;;;7.98;97.32;94423.91;4387732;32;20222;-61
2023/04/13 00:47:25;;;;;;;0.00;0.00;;;;;;;7.87;98.34;94433.91;4386747;32;20181;-61
2023/04/13 00:49:52;;;;;;;0.10;0.10;;;;;;;7.73;99.51;94427.88;4369832;32;20316;-61
2023/04/13 00:52:18;;;;;;;0.20;0.20;;;;;;;7.86;98.94;94427.84;4373634;32;20272;-60
2023/04/13 00:54:43;;;;;;;0.00;0.00;;;;;;;7.94;98.98;94426.34;4394681;32;20280;-61
2023/04/13 00:57:09;;;;;;;0.00;0.00;;;;;;;7.93;98.55;94428.22;4391375;32;20294;-61
2023/04/13 00:59:35;;;;;;;0.00;0.00;;;;;;;7.92;98.75;94426.62;4386645;32;20195;-61
2023/04/13 01:02:03;;;;;;;0.00;0.00;;;;;;;7.81;99.25;94424.53;4391894;32;20223;-61
2023/04/13 01:04:29;;;;;;;0.00;0.00;;;;;;;7.92;99.34;94429.28;4388161;32;20203;-61
2023/04/13 01:07:11;;;;;;;0.00;0.00;;;;;;;8.03;97.93;94421.94;4392431;32;20276;-61
2023/04/13 01:10:02;;;;;;;0.00;0.00;;;;;;;7.93;97.93;94422.94;4365387;32;20337;-61
2023/04/13 01:12:38;;;;;;;0.00;0.00;;;;;;;8.00;97.50;94427.03;4377118;32;20272;-61
2023/04/13 01:15:08;;;;;;;0.00;0.00;;;;;;;7.78;98.65;94425.12;4378422;32;20306;-61
2023/04/13 01:17:36;;;;;;;0.00;0.00;;;;;;;7.88;98.96;94436.25;4375362;32;20285;-61
2023/04/13 01:20:13;;;;;;;0.10;0.10;;;;;;;7.88;97.77;94430.19;4373981;32;20288;-61
2023/04/13 01:22:41;;;;;;;0.00;0.00;;;;;;;7.80;98.05;94423.75;4371763;32;20284;-61
2023/04/13 01:25:29;;;;;;;0.00;0.00;;;;;;;7.89;98.50;94426.47;4377103;32;20490;-61
2023/04/13 01:28:01;;;;;;;0.00;0.00;;;;;;;7.78;97.88;94422.50;4368702;32;20296;-61
2023/04/13 01:30:27;;;;;;;0.00;0.00;;;;;;;7.64;97.70;94406.69;4390834;32;20284;-61
2023/04/13 01:32:54;;;;;;;0.00;0.00;;;;;;;7.70;97.17;94407.34;4386364;32;20307;-61
2023/04/13 01:35:21;;;;;;;0.73;0.40;;;;;;;7.61;97.39;94409.13;4389797;32;20280;-60
2023/04/13 01:37:47;;;;;;;0.00;0.00;;;;;;;7.75;97.17;94415.16;4377935;32;20314;-60
2023/04/13 01:40:13;;;;;;;0.00;0.00;;;;;;;7.90;96.47;94417.44;4386482;32;20288;-61
2023/04/13 01:42:39;;;;;;;0.00;0.00;;;;;;;7.83;97.45;94419.75;4378314;32;20188;-60
2023/04/13 01:45:16;;;;;;;3.50;0.23;;;;;;;7.92;96.29;94415.28;4392528;32;20196;-60
2023/04/13 01:47:51;;;;;;;0.00;0.00;;;;;;;7.86;95.99;94419.94;4379660;32;20329;-60
2023/04/13 01:50:27;;;;;;;0.03;0.03;;;;;;;7.87;95.46;94418.06;4371062;32;20296;-59
2023/04/13 01:52:57;;;;;;;0.10;0.10;;;;;;;7.76;95.22;94419.34;4391888;32;20339;-61
2023/04/13 01:55:23;;;;;;;0.50;0.23;;;;;;;7.85;95.23;94423.66;4389479;32;20288;-60
2023/04/13 01:57:56;;;;;;;0.00;0.00;;;;;;;7.84;95.38;94426.59;4381720;32;20272;-60
2023/04/13 02:00:32;;;;;;;0.00;0.00;;;;;;;7.93;95.43;94430.84;4385894;32;20284;-61
2023/04/13 02:02:57;;;;;;;0.00;0.00;;;;;;;7.73;95.87;94423.38;4386038;32;20322;-61
2023/04/13 02:05:22;;;;;;;0.00;0.00;;;;;;;7.85;95.59;94430.78;4377786;32;20284;-61
2023/04/13 02:07:48;;;;;;;0.10;0.03;;;;;;;8.00;95.37;94437.59;4376958;32;20189;-60
2023/04/13 02:10:14;;;;;;;0.00;0.00;;;;;;;8.05;94.49;94440.91;4377532;32;20245;-61
2023/04/13 02:12:40;;;;;;;0.00;0.00;;;;;;;8.03;94.33;94447.56;4377731;32;20207;-61
2023/04/13 02:15:06;;;;;;;0.20;0.20;;;;;;;8.07;93.90;94449.31;4389506;32;20292;-60
2023/04/13 02:17:31;;;;;;;0.00;0.00;;;;;;;7.91;93.49;94437.50;4390244;32;20200;-60
2023/04/13 02:19:57;;;;;;;0.00;0.00;;;;;;;7.93;94.15;94443.28;4369078;32;20181;-61
2023/04/13 02:22:22;;;;;;;0.00;0.00;;;;;;;7.93;94.11;94433.50;4389754;32;20195;-60
2023/04/13 02:24:49;;;;;;;0.00;0.00;;;;;;;7.97;93.63;94431.03;4374138;32;20191;-61
2023/04/13 02:27:15;;;;;;;0.00;0.00;;;;;;;8.13;92.68;94444.66;4374310;32;20199;-61
2023/04/13 02:29:40;;;;;;;0.00;0.00;;;;;;;7.86;93.56;94456.12;4384268;32;20306;-60
2023/04/13 02:32:06;;;;;;;0.00;0.00;;;;;;;7.83;93.77;94457.50;4388857;32;20284;-61
2023/04/13 02:34:32;;;;;;;0.00;0.00;;;;;;;7.96;93.14;94457.75;4384468;32;20183;-60
2023/04/13 02:37:01;;;;;;;0.67;0.37;;;;;;;7.66;94.34;94470.53;4375700;32;20284;-60
2023/04/13 02:39:26;;;;;;;0.00;0.00;;;;;;;7.56;94.78;94466.22;4379167;32;20294;-60
2023/04/13 02:41:52;;;;;;;0.10;0.10;;;;;;;7.78;94.17;94467.37;4389624;32;20296;-60
2023/04/13 02:44:17;;;;;;;0.20;0.20;;;;;;;7.59;94.84;94464.84;4377159;32;20203;-60
2023/04/13 02:46:43;;;;;;;0.10;0.00;;;;;;;7.70;94.01;94455.62;4392782;32;20184;-60
2023/04/13 02:49:09;;;;;;;0.00;0.00;;;;;;;7.70;94.26;94470.69;4388094;32;20188;-61
2023/04/13 02:51:34;;;;;;;0.00;0.00;;;;;;;7.56;94.91;94471.50;4377510;32;20177;-60
2023/04/13 02:54:03;;;;;;;0.97;0.23;;;;;;;7.74;93.99;94471.66;4390695;32;20258;-60
2023/04/13 02:56:29;;;;;;;0.10;0.10;;;;;;;7.47;94.72;94477.78;4389073;32;20192;-60
2023/04/13 02:59:25;;;;;;;0.00;0.00;;;;;;;7.59;94.38;94475.41;4389981;32;20272;-61
2023/04/13 03:01:51;;;;;;;0.10;0.10;;;;;;;7.38;95.14;94479.53;4383998;32;20378;-61
2023/04/13 03:04:16;;;;;;;0.00;0.00;;;;;;;7.20;95.42;94478.56;4389258;32;20341;-60
2023/04/13 03:06:43;;;;;;;0.00;0.00;;;;;;;7.16;95.94;94473.06;4377159;32;20181;-60
2023/04/13 03:09:08;;;;;;;0.13;0.13;;;;;;;7.45;95.25;94469.38;4385223;32;20176;-60
2023/04/13 03:11:34;;;;;;;0.00;0.00;;;;;;;7.44;94.82;94460.66;4380395;32;20310;-61
2023/04/13 03:14:00;;;;;;;0.00;0.00;;;;;;;7.47;95.03;94456.66;4384580;32;20321;-60
2023/04/13 03:16:25;;;;;;;0.00;0.00;;;;;;;7.65;94.20;94457.63;4389187;32;20188;-60
2023/04/13 03:18:51;;;;;;;0.00;0.00;;;;;;;7.49;93.80;94452.63;4389123;32;20219;-60
2023/04/13 03:21:16;;;;;;;0.00;0.00;;;;;;;7.61;93.83;94454.00;4377617;32;20232;-60
2023/04/13 03:23:42;;;;;;;0.13;0.13;;;;;;;7.73;93.01;94449.00;4384478;32;20203;-60
2023/04/13 03:26:08;;;;;;;0.00;0.00;;;;;;;7.64;93.45;94454.19;4384026;32;20268;-60
2023/04/13 03:28:33;;;;;;;0.00;0.00;;;;;;;7.48;93.84;94450.31;4385677;32;20381;-60
2023/04/13 03:30:58;;;;;;;0.00;0.00;;;;;;;7.50;94.22;94441.00;4389126;32;20312;-60
2023/04/13 03:33:24;;;;;;;0.00;0.00;;;;;;;7.39;94.80;94439.66;4386864;32;20184;-60
2023/04/13 03:35:49;;;;;;;0.00;0.00;;;;;;;7.48;94.49;94440.50;4376551;32;20192;-60
2023/04/13 03:38:14;;;;;;;0.00;0.00;;;;;;;7.40;94.35;94429.87;4387167;32;20211;-61
2023/04/13 03:40:40;;;;;;;0.00;0.00;;;;;;;7.37;94.39;94431.25;4388777;32;20180;-60
2023/04/13 03:43:06;;;;;;;0.03;0.03;;;;;;;7.51;94.20;94437.28;4388672;32;20204;-60
2023/04/13 03:45:32;;;;;;;0.07;0.07;;;;;;;7.51;94.09;94442.56;4383001;32;20353;-60
2023/04/13 03:47:57;;;;;;;0.00;0.00;;;;;;;7.50;93.74;94454.19;4376470;32;20188;-60
2023/04/13 03:50:23;;;;;;;0.00;0.00;;;;;;;7.49;94.06;94460.56;4389796;32;20206;-60
2023/04/13 03:52:48;;;;;;;0.10;0.10;;;;;;;7.59;93.16;94465.63;4384111;32;20225;-61
2023/04/13 03:55:13;;;;;;;0.00;0.00;;;;;;;7.74;92.18;94458.47;4381308;32;20199;-60
2023/04/13 03:57:39;;;;;;;0.00;0.00;;;;;;;7.50;93.10;94463.97;4390185;32;20200;-60
2023/04/13 04:00:09;;;;;;;0.00;0.00;;;;;;;7.74;93.04;94464.53;4387421;32;20214;-60
2023/04/13 04:02:36;;;;;;;0.00;0.00;;;;;;;7.88;91.64;94461.88;4376509;32;20185;-60
2023/04/13 04:05:02;;;;;;;0.00;0.00;;;;;;;7.75;90.74;94457.41;4372806;32;20288;-60
2023/04/13 04:07:27;;;;;;;0.00;0.00;;;;;;;7.59;91.75;94449.81;4373175;32;20288;-60
2023/04/13 04:09:53;;;;;;;0.00;0.00;;;;;;;7.54;92.24;94439.34;4388562;32;20210;-60
2023/04/13 04:12:18;;;;;;;0.00;0.00;;;;;;;7.57;92.04;94445.91;4375018;32;20199;-60
2023/04/13 04:14:43;;;;;;;0.00;0.00;;;;;;;7.55;91.25;94446.19;4389149;32;20319;-60
2023/04/13 04:17:09;;;;;;;0.00;0.00;;;;;;;7.36;92.22;94439.47;4370267;32;20184;-60
2023/04/13 04:19:37;;;;;;;0.00;0.00;;;;;;;7.40;92.32;94451.00;4367450;32;20231;-60
2023/04/13 04:22:03;;;;;;;0.10;0.10;;;;;;;7.20;92.67;94449.53;4360409;32;20223;-60
2023/04/13 04:24:28;;;;;;;0.00;0.00;;;;;;;7.06;93.01;94451.41;4383170;32;20285;-60
2023/04/13 04:26:54;;;;;;;1.10;0.30;;;;;;;7.08;93.46;94459.78;4389726;32;20189;-61
2023/04/13 04:29:21;;;;;;;0.00;0.00;;;;;;;7.13;92.82;94454.41;4373487;32;20277;-60
2023/04/13 04:31:51;;;;;;;0.10;0.10;;;;;;;7.29;92.10;94455.69;4385588;32;20248;-60
2023/04/13 04:34:18;;;;;;;0.10;0.10;;;;;;;7.25;91.47;94457.34;4388507;32;20303;-61
2023/04/13 04:36:49;;;;;;;0.40;0.40;;;;;;;7.12;92.61;94466.81;4391778;32;20345;-61
2023/04/13 04:39:20;;;;;;;0.20;0.10;;;;;;;7.08;92.12;94465.03;4368051;32;20295;-60
2023/04/13 04:41:46;;;;;;;0.00;0.00;;;;;;;7.03;91.52;94471.22;4379507;32;20280;-60
2023/04/13 04:44:15;;;;;;;0.00;0.00;;;;;;;7.06;91.87;94461.94;4377949;32;20275;-60
2023/04/13 04:46:42;;;;;;;0.20;0.20;;;;;;;7.11;91.48;94459.19;4393151;32;20194;-61
2023/04/13 04:49:08;;;;;;;0.00;0.00;;;;;;;7.01;92.10;94462.81;4377058;32;20371;-60
2023/04/13 04:51:34;;;;;;;0.00;0.00;;;;;;;7.04;91.94;94472.78;4392358;32;20402;-61
2023/04/13 04:54:01;;;;;;;0.10;0.10;;;;;;;6.97;92.01;94463.69;4373448;32;20194;-61
2023/04/13 04:56:26;;;;;;;0.00;0.00;;;;;;;6.98;92.01;94470.53;4381085;32;20292;-60
2023/04/13 04:58:51;;;;;;;1.43;0.10;;;;;;;7.21;91.40;94466.94;4371542;32;20287;-61
2023/04/13 05:01:21;;;;;;;0.10;0.10;;;;;;;7.08;90.44;94465.03;4390651;32;20189;-60
2023/04/13 05:03:47;;;;;;;0.00;0.00;;;;;;;7.18;90.05;94468.28;4391423;32;20196;-63
2023/04/13 05:06:12;;;;;;;0.10;0.10;;;;;;;6.96;90.84;94473.44;4385842;32;20280;-61
2023/04/13 05:08:37;;;;;;;0.83;0.47;;;;;;;7.06;90.71;94469.84;4375647;32;20200;-61
2023/04/13 05:11:06;;;;;;;2.10;0.57;;;;;;;7.07;91.16;94474.03;4376197;32;20180;-61
2023/04/13 05:13:31;;;;;;;0.00;0.00;;;;;;;7.13;89.78;94465.75;4378174;32;20258;-61
2023/04/13 05:15:57;;;;;;;0.10;0.10;;;;;;;7.06;90.27;94469.84;4381769;32;20288;-61
2023/04/13 05:18:22;;;;;;;0.20;0.20;;;;;;;7.14;89.94;94466.53;4383243;32;20207;-60
2023/04/13 05:20:47;;;;;;;0.40;0.30;;;;;;;7.35;89.59;94470.34;4392440;32;20176;-60
2023/04/13 05:23:13;;;;;;;0.00;0.00;;;;;;;7.22;89.67;94464.00;4392618;32;20223;-60
2023/04/13 05:25:38;;;;;;;0.00;0.00;;;;;;;7.17;89.01;94468.56;4391173;32;20234;-61
2023/04/13 05:28:04;;;;;;;0.07;0.07;;;;;;;7.23;89.55;94464.78;4382530;32;20334;-60
2023/04/13 05:30:29;;;;;;;0.00;0.00;;;;;;;7.45;88.67;94469.38;4387387;32;20219;-61
2023/04/13 05:32:55;;;;;;;0.00;0.00;;;;;;;7.39;88.44;94478.44;4377153;32;20197;-61
2023/04/13 05:35:22;;;;;;;0.00;0.00;;;;;;;7.41;87.87;94479.72;4384574;32;20232;-61
2023/04/13 05:37:48;;;;;;;0.20;0.20;;;;;;;7.34;88.22;94479.31;4389175;32;20247;-59
2023/04/13 05:40:13;;;;;;;0.00;0.00;;;;;;;7.57;87.04;94488.91;4386884;32;20279;-61
2023/04/13 05:42:41;;;;;;;0.00;0.00;;;;;;;7.27;88.02;94499.28;4378897;32;20196;-60
2023/04/13 05:45:08;;;;;;;0.10;0.10;;;;;;;7.30;87.50;94501.31;4391144;32;20256;-61
2023/04/13 05:47:34;;;;;;;0.10;0.10;;;;;;;7.22;88.63;94502.78;4387982;32;20302;-61
2023/04/13 05:49:59;;;;;;;0.10;0.10;;;;;;;7.35;88.49;94506.50;4390382;32;20280;-61
2023/04/13 05:52:25;;;;;;;0.10;0.10;;;;;;;7.42;88.01;94507.69;4383665;32;20204;-61
2023/04/13 05:54:51;;;;;;;0.10;0.10;;;;;;;7.63;87.07;94507.28;4390116;32;20251;-61
2023/04/13 05:57:19;;;;;;;0.00;0.00;;;;;;;7.62;87.31;94518.91;4370260;32;20197;-61
2023/04/13 05:59:45;;;;;;;0.00;0.00;;;;;;;7.69;86.61;94516.66;4371305;32;20284;-61
2023/04/13 06:02:10;;;;;;;0.00;0.00;;;;;;;7.59;87.42;94515.78;4385364;32;20294;-61
2023/04/13 06:04:36;;;;;;;0.00;0.00;;;;;;;7.72;86.85;94527.41;4375086;32;20185;-61
2023/04/13 06:07:01;;;;;;;0.00;0.00;;;;;;;7.54;86.70;94530.94;4384821;32;20210;-61
2023/04/13 06:09:27;;;;;;;0.00;0.00;;;;;;;7.59;86.57;94528.19;4387676;32;20256;-61
2023/04/13 06:11:53;;;;;;;0.10;0.10;;;;;;;7.59;86.32;94534.25;4371372;32;20177;-61
2023/04/13 06:14:19;;;;;;;0.00;0.00;;;;;;;7.72;85.82;94537.97;4388754;32;20236;-60
2023/04/13 06:16:45;;;;;;;0.00;0.00;;;;;;;7.82;85.32;94540.41;4375743;32;20299;-61
2023/04/13 06:19:11;;;;;;;0.17;0.17;;;;;;;7.71;86.02;94546.16;4390908;32;20303;-61
2023/04/13 06:21:36;;;;;;;0.00;0.00;;;;;;;7.45;87.02;94554.59;4381580;32;20219;-61
2023/04/13 06:24:02;;;;;;;0.90;0.87;;;;;;;7.53;87.00;94548.63;4379519;32;20288;-61
2023/04/13 06:26:28;;;;;;;0.00;0.00;;;;;;;7.64;86.72;94545.78;4377356;32;20199;-61
2023/04/13 06:28:53;;;;;;;0.47;0.30;;;;;;;7.57;86.41;94546.97;4388675;32;20222;-61
2023/04/13 06:31:19;;;;;;;0.30;0.30;;;;;;;7.66;85.67;94544.44;4373736;32;20301;-61
2023/04/13 06:33:46;;;;;;;0.77;0.33;;;;;;;7.67;85.68;94548.63;4380860;32;20180;-61
2023/04/13 06:36:11;;;;;;;0.20;0.20;;;;;;;7.56;85.99;94550.66;4387137;32;20320;-61
2023/04/13 06:38:37;;;;;;;0.07;0.07;;;;;;;7.33;87.25;94550.84;4372438;32;24168;-61
2023/04/13 06:41:05;;;;;;;0.00;0.00;;;;;;;7.35;87.35;94544.22;4391017;32;20180;-60
2023/04/13 06:43:31;;;;;;;0.00;0.00;;;;;;;7.40;87.05;94546.75;4383128;32;20240;-59
2023/04/13 06:46:01;;;;;;;0.03;0.03;;;;;;;7.50;86.58;94546.56;4386840;32;20296;-59
2023/04/13 06:48:26;;;;;;;0.10;0.10;;;;;;;7.66;87.04;94546.28;4374457;32;20234;-59
2023/04/13 06:50:56;;;;;;;0.10;0.10;;;;;;;7.39;86.53;94555.75;4385059;32;20279;-59
2023/04/13 06:53:22;;;;;;;0.33;0.30;;;;;;;7.71;85.87;94546.16;4382193;32;20242;-59
2023/04/13 06:55:47;;;;;;;0.10;0.10;;;;;;;7.35;87.20;94549.47;4384673;32;20280;-57
2023/04/13 06:58:13;;;;;;;0.10;0.10;;;;;;;7.55;86.77;94549.09;4387596;32;20326;-59
2023/04/13 07:11:09;;;;;;;0.10;0.10;;;;;;;9.08;88.86;94537.88;4388337;32;20350;-59
2023/04/13 07:13:34;;;;;;;0.30;0.30;;;;;;;9.20;88.17;94541.53;4385232;32;20351;-59
2023/04/13 07:16:00;;;;;;;0.20;0.20;;;;;;;8.91;83.46;94542.00;4384625;32;20276;-59
2023/04/13 07:18:25;;;;;;;0.30;0.30;;;;;;;9.20;86.77;94536.22;4370255;32;20177;-59
2023/04/13 07:20:51;;;;;;;0.00;0.00;;;;;;;8.95;83.83;94537.63;4382673;32;20228;-59
2023/04/13 07:23:17;;;;;;;0.30;0.30;;;;;;;8.81;81.44;94536.16;4368531;32;20200;-59
2023/04/13 07:29:50;;;;;;;0.83;0.57;;;;;;;8.98;81.82;94546.06;4388765;32;20251;-57
2023/04/13 07:32:16;;;;;;;0.27;0.27;;;;;;;8.95;78.48;94552.72;4380855;32;20289;-59
2023/04/13 07:34:41;;;;;;;0.10;0.10;;;;;;;8.78;77.42;94552.63;4384721;32;20329;-59
2023/04/13 07:37:07;;;;;;;0.10;0.10;;;;;;;8.67;77.91;94556.59;4384200;32;20352;-59
2023/04/13 07:39:33;;;;;;;0.10;0.10;;;;;;;8.28;78.87;94550.81;4387554;32;20304;-59
2023/04/13 07:41:58;;;;;;;2.63;0.60;;;;;;;8.26;79.61;94563.53;4381747;32;20262;-59
2023/04/13 07:44:24;;;;;;;0.40;0.40;;;;;;;8.15;78.35;94541.03;4375664;32;20237;-59
2023/04/13 07:46:50;;;;;;;0.00;0.00;;;;;;;8.25;77.36;94548.75;4390048;32;20253;-59
2023/04/13 07:49:16;;;;;;;0.37;0.37;;;;;;;8.36;78.29;94543.25;4392234;32;20233;-60
2023/04/13 07:51:45;;;;;;;0.43;0.30;;;;;;;8.58;78.25;94538.78;4382320;32;20194;-59
2023/04/13 07:54:11;;;;;;;0.43;0.30;;;;;;;8.74;78.24;94541.84;4383759;32;20241;-59
2023/04/13 07:56:36;;;;;;;1.37;0.37;;;;;;;8.83;75.61;94550.63;4383888;32;20276;-59
2023/04/13 07:59:02;;;;;;;0.30;0.30;;;;;;;8.77;74.56;94537.84;4380686;32;20222;-59
2023/04/13 08:01:28;;;;;;;0.00;0.00;;;;;;;8.63;73.99;94540.53;4388451;32;20188;-59
2023/04/13 08:03:56;;;;;;;0.37;0.37;;;;;;;8.66;74.05;94545.22;4383028;32;20222;-59
2023/04/13 08:06:22;;;;;;;2.43;0.60;;;;;;;8.70;73.33;94550.72;4375464;32;20368;-59
2023/04/13 08:08:48;;;;;;;0.30;0.30;;;;;;;8.72;74.09;94537.97;4388960;32;20284;-59
2023/04/13 08:11:14;;;;;;;0.17;0.17;;;;;;;8.81;72.92;94526.34;4393570;32;20212;-59
2023/04/13 08:13:39;;;;;;;0.00;0.00;;;;;;;8.59;73.10;94531.66;4385787;32;20286;-59
2023/04/13 08:16:05;;;;;;;0.10;0.10;;;;;;;8.79;73.27;94539.09;4389896;32;20288;-59
2023/04/13 08:18:31;;;;;;;0.43;0.43;;;;;;;8.91;72.55;94535.94;4385787;32;20181;-59
2023/04/13 08:20:57;;;;;;;0.10;0.10;;;;;;;8.92;72.35;94535.63;4388643;32;20211;-59
2023/04/13 08:23:24;;;;;;;0.30;0.30;;;;;;;9.12;70.71;94533.56;4387387;32;20259;-60
2023/04/13 08:25:50;;;;;;;0.00;0.00;;;;;;;9.05;71.01;94539.28;4375511;32;20292;-59
2023/04/13 08:28:16;;;;;;;0.67;0.20;;;;;;;8.98;69.79;94552.13;4386907;32;20184;-59
2023/04/13 08:30:42;;;;;;;0.00;0.00;;;;;;;9.05;69.67;94552.50;4377111;32;20288;-59
2023/04/13 08:33:08;;;;;;;1.07;0.90;;;;;;;8.83;69.57;94545.34;4391317;32;20252;-58
2023/04/13 08:35:38;;;;;;;0.63;0.33;;;;;;;9.11;69.08;94547.88;4385071;32;20210;-58
2023/04/13 08:38:07;;;;;;;0.30;0.30;;;;;;;9.09;69.94;94536.81;4373129;32;20281;-59
2023/04/13 08:40:37;;;;;;;0.20;0.20;;;;;;;8.94;68.97;94538.72;4388835;32;20340;-59
2023/04/13 08:43:06;;;;;;;0.80;0.47;;;;;;;9.22;69.06;94530.63;4391668;32;20291;-59
2023/04/13 08:45:33;;;;;;;0.27;0.27;;;;;;;9.30;65.77;94527.25;4383181;32;20333;-59
2023/04/13 08:48:00;;;;;;;0.10;0.10;;;;;;;9.27;65.34;94523.34;4382898;32;20288;-59
2023/04/13 08:50:27;;;;;;;0.50;0.50;;;;;;;9.08;65.34;94524.66;4370059;32;20276;-58
2023/04/13 08:52:54;;;;;;;0.40;0.13;;;;;;;9.15;64.75;94528.41;4387411;32;20302;-59
2023/04/13 08:55:20;;;;;;;1.10;0.27;;;;;;;9.18;65.74;94533.09;4387788;32;20284;-59
2023/04/13 08:57:48;;;;;;;0.00;0.00;;;;;;;9.56;62.64;94520.19;4390833;32;20356;-59
2023/04/13 09:00:18;;;;;;;0.43;0.33;;;;;;;9.68;61.37;94527.56;4387558;32;20233;-59
2023/04/13 09:02:53;;;;;;;0.10;0.10;;;;;;;9.62;60.62;94526.91;4388636;32;20337;-59
2023/04/13 09:05:20;;;;;;;0.00;0.00;;;;;;;9.73;60.02;94526.66;4387199;32;20283;-59
2023/04/13 09:07:52;;;;;;;0.20;0.20;;;;;;;9.85;58.38;94519.66;4394247;32;20298;-59
2023/04/13 09:10:19;;;;;;;0.07;0.07;;;;;;;9.94;58.79;94514.41;4369854;32;20322;-57
2023/04/13 09:12:45;;;;;;;0.53;0.37;;;;;;;9.87;56.91;94527.31;4393343;32;20287;-59
2023/04/13 09:15:15;;;;;;;0.17;0.17;;;;;;;9.79;57.85;94522.75;4390303;32;20272;-59
2023/04/13 09:17:42;;;;;;;0.10;0.10;;;;;;;9.93;58.22;94524.22;4389654;32;20195;-59
2023/04/13 09:20:22;;;;;;;0.30;0.30;;;;;;;9.84;61.29;94527.91;4380735;32;20284;-58
2023/04/13 09:22:49;;;;;;;0.40;0.40;;;;;;;10.06;59.40;94519.88;4390340;32;20202;-59
2023/04/13 09:25:28;;;;;;;0.40;0.40;;;;;;;10.01;58.50;94520.00;4391788;32;20206;-58
2023/04/13 09:27:55;;;;;;;0.10;0.10;;;;;;;10.08;58.00;94523.00;4374807;32;20199;-58
2023/04/13 09:30:28;;;;;;;0.33;0.33;;;;;;;10.35;58.68;94518.53;4384526;32;20227;-58
2023/04/13 09:33:04;;;;;;;0.00;0.00;;;;;;;10.05;56.37;94517.53;4376206;32;20218;-58
2023/04/13 09:35:34;;;;;;;0.23;0.23;;;;;;;10.26;55.90;94518.53;4373095;32;20211;-59
2023/04/13 09:37:59;;;;;;;0.10;0.10;;;;;;;10.44;54.75;94511.34;4390883;32;20322;-58
2023/04/13 09:40:29;;;;;;;0.23;0.17;;;;;;;10.62;53.10;94519.00;4388720;32;20192;-58
2023/04/13 09:42:54;;;;;;;1.00;0.30;;;;;;;10.66;55.24;94508.53;4372599;32;20210;-58
2023/04/13 09:45:20;;;;;;;0.00;0.00;;;;;;;10.95;55.13;94507.91;4382324;32;20256;-58
2023/04/13 09:47:49;;;;;;;0.20;0.20;;;;;;;10.63;55.84;94499.34;4380224;32;20184;-58
2023/04/13 09:50:21;;;;;;;0.17;0.03;;;;;;;10.76;55.25;94494.97;4380707;32;20193;-58
2023/04/13 09:53:10;;;;;;;0.30;0.30;;;;;;;10.85;56.36;94509.00;4387988;32;20204;-58
2023/04/13 09:55:37;;;;;;;0.03;0.03;;;;;;;11.03;55.35;94499.91;4370374;32;20226;-58
2023/04/13 09:58:09;;;;;;;0.10;0.10;;;;;;;10.93;55.41;94496.81;4377175;32;20236;-59
2023/04/13 10:00:37;;;;;;;0.27;0.27;;;;;;;11.03;56.69;94501.78;4379613;32;20192;-59
2023/04/13 10:03:08;;;;;;;0.10;0.10;;;;;;;10.89;54.56;94501.97;4373022;32;20264;-58
2023/04/13 10:05:33;;;;;;;0.10;0.10;;;;;;;10.85;53.99;94490.41;4383831;32;20188;-58
2023/04/13 10:08:00;;;;;;;0.00;0.00;;;;;;;10.71;54.40;94489.81;4384446;32;20239;-58
2023/04/13 10:10:26;;;;;;;0.10;0.10;;;;;;;10.56;55.77;94488.44;4385700;32;20184;-58
2023/04/13 10:12:56;;;;;;;0.27;0.27;;;;;;;10.48;54.75;94480.47;4390637;32;20214;-58
2023/04/13 10:15:58;;;;;;;0.33;0.33;;;;;;;10.74;54.72;94477.81;4372490;32;20244;-59
2023/04/13 10:18:50;;;;;;;0.10;0.10;;;;;;;10.55;54.89;94476.28;4389323;32;20221;-58
2023/04/13 10:21:17;;;;;;;0.10;0.10;;;;;;;10.70;56.49;94476.88;4369206;32;20189;-58
2023/04/13 10:23:43;;;;;;;0.20;0.20;;;;;;;10.90;55.90;94470.91;4386122;32;20195;-58
2023/04/13 10:26:09;;;;;;;0.00;0.00;;;;;;;10.86;54.75;94464.66;4387679;32;20283;-59
2023/04/13 10:28:45;;;;;;;0.20;0.20;;;;;;;10.74;54.98;94467.97;4370332;32;20188;-58
2023/04/13 10:31:11;;;;;;;0.33;0.33;;;;;;;10.72;57.22;94472.81;4376531;32;20206;-58
2023/04/13 10:33:49;;;;;;;0.73;0.50;;;;;;;10.87;53.58;94479.50;4388955;32;20192;-58
2023/04/13 10:36:15;;;;;;;0.27;0.27;;;;;;;10.87;52.14;94477.63;4390892;32;20227;-58
2023/04/13 10:38:45;;;;;;;0.37;0.37;;;;;;;10.76;55.57;94471.09;4373996;32;20227;-58
2023/04/13 10:41:22;;;;;;;1.90;0.40;;;;;;;10.95;51.31;94454.81;4385426;32;20188;-58
2023/04/13 10:43:47;;;;;;;0.00;0.00;;;;;;;10.90;50.92;94460.28;4384953;32;20204;-58
2023/04/13 10:46:13;;;;;;;0.10;0.10;;;;;;;10.76;51.61;94449.88;4385020;32;20184;-58
2023/04/13 10:48:42;;;;;;;0.20;0.20;;;;;;;11.05;52.21;94448.38;4385533;32;20286;-59
2023/04/13 10:51:08;;;;;;;0.10;0.10;;;;;;;10.89;50.60;94438.28;4384076;32;21863;-59
2023/04/13 10:53:37;;;;;;;0.63;0.60;;;;;;;10.94;53.27;94442.66;4372782;32;20208;-57
2023/04/13 10:56:04;;;;;;;0.20;0.20;;;;;;;11.00;52.52;94436.09;4374772;32;20227;-59
2023/04/13 10:58:31;;;;;;;0.10;0.10;;;;;;;10.80;50.98;94450.03;4384093;32;20192;-58
2023/04/13 11:00:57;;;;;;;0.17;0.17;;;;;;;10.80;52.24;94445.50;4387671;32;20261;-58
2023/04/13 11:03:27;;;;;;;2.47;0.37;;;;;;;10.85;52.76;94457.78;4365952;32;20227;-59
2023/04/13 11:05:57;;;;;;;0.53;0.30;;;;;;;11.00;51.59;94457.31;4387245;32;20261;-59
2023/04/13 11:08:23;;;;;;;0.77;0.67;;;;;;;10.96;52.53;94459.03;4368733;32;20232;-59
2023/04/13 11:10:56;;;;;;;0.40;0.40;;;;;;;10.72;51.33;94464.84;4377082;32;20249;-58
2023/04/13 11:13:27;;;;;;;1.23;0.30;;;;;;;10.80;51.78;94466.72;4390867;32;20188;-59
2023/04/13 11:16:03;;;;;;;0.17;0.17;;;;;;;10.72;50.97;94469.38;4389597;32;20214;-59
2023/04/13 11:18:29;;;;;;;0.40;0.30;;;;;;;10.64;50.71;94474.38;4385513;32;20188;-59
2023/04/13 11:20:55;;;;;;;1.07;0.57;;;;;;;10.58;51.27;94472.22;4373071;32;20232;-59
2023/04/13 11:23:22;;;;;;;0.00;0.00;;;;;;;10.36;50.19;94467.09;4369116;32;20236;-59
2023/04/13 11:26:00;;;;;;;0.10;0.10;;;;;;;10.49;50.35;94471.44;4374306;32;20211;-59
2023/04/13 11:28:39;;;;;;;0.30;0.23;;;;;;;10.43;51.27;94468.16;4368845;32;20254;-60
2023/04/13 11:31:06;;;;;;;0.20;0.20;;;;;;;10.50;53.13;94457.88;4377564;32;20192;-59
2023/04/13 11:33:35;;;;;;;0.00;0.00;;;;;;;10.45;54.48;94452.72;4362652;32;20201;-60
2023/04/13 11:36:01;;;;;;;0.10;0.10;;;;;;;10.53;53.76;94451.16;4374325;32;20207;-60
2023/04/13 11:38:27;;;;;;;0.20;0.20;;;;;;;10.45;53.53;94455.38;4361761;32;20181;-60
2023/04/13 11:41:00;;;;;;;0.57;0.37;;;;;;;10.48;54.69;94460.03;4379520;32;20203;-60
2023/04/13 11:43:26;;;;;;;0.50;0.27;;;;;;;10.51;56.16;94461.28;4374156;32;20254;-60
2023/04/13 11:45:53;;;;;;;1.90;0.63;;;;;;;10.52;55.49;94465.50;4390954;32;20225;-59
2023/04/13 11:48:19;;;;;;;0.00;0.00;;;;;;;10.68;57.37;94463.91;4373009;32;20188;-60
2023/04/13 11:50:45;;;;;;;0.20;0.20;;;;;;;10.63;53.79;94461.44;4392956;32;20267;-61
2023/04/13 11:53:12;;;;;;;0.20;0.20;;;;;;;10.58;53.77;94461.59;4373067;32;20177;-59
2023/04/13 11:55:39;;;;;;;0.30;0.30;;;;;;;10.63;53.10;94464.06;4382153;32;20256;-59